Time;durP1;ratioP1;P1;durP2;ratioP2;P2;SDS_P1;SDS_P2;PMS_P1;PMS_P2;Temp;Humidity;BMP_temperature;BMP_pressure;BME280_temperature;BME280_humidity;BME280_pressure;Samples;Min_cycle;Max_cycle;Signal;HPM_P1;HPM_P2
2020/12/25 00:01:23;;;;;;;1.17;0.80;;;;;;;1.30;89.32;98807.59;5052636;28;20049;-79
2020/12/25 00:03:52;;;;;;;0.98;0.90;;;;;;;1.35;90.00;98818.72;5036432;28;20057;-78
2020/12/25 00:06:18;;;;;;;0.77;0.65;;;;;;;1.26;89.96;98811.50;5035527;28;20056;-79
2020/12/25 00:08:45;;;;;;;0.98;0.80;;;;;;;1.31;89.34;98817.31;5031818;28;20057;-79
2020/12/25 00:11:11;;;;;;;0.75;0.75;;;;;;;1.20;89.24;98802.19;5029071;28;20045;-79
2020/12/25 00:13:37;;;;;;;0.80;0.80;;;;;;;1.34;89.28;98835.81;5033219;28;20056;-79
2020/12/25 00:16:05;;;;;;;0.77;0.77;;;;;;;1.35;89.55;98823.25;5033432;28;20042;-79
2020/12/25 00:18:31;;;;;;;1.20;1.10;;;;;;;1.35;90.16;98837.47;5034336;28;20037;-78
2020/12/25 00:20:57;;;;;;;1.23;1.05;;;;;;;1.34;89.24;98833.13;5028235;28;20116;-78
2020/12/25 00:23:24;;;;;;;1.58;1.20;;;;;;;1.25;89.24;98820.53;5024456;28;20045;-79
2020/12/25 00:25:51;;;;;;;1.65;1.50;;;;;;;1.21;89.09;98829.81;5033847;28;20045;-79
2020/12/25 00:28:17;;;;;;;4.55;1.45;;;;;;;1.33;88.90;98847.50;5033925;28;20049;-79
2020/12/25 00:30:44;;;;;;;0.93;0.93;;;;;;;1.15;88.72;98828.50;5033105;28;20053;-79
2020/12/25 00:33:11;;;;;;;0.80;0.80;;;;;;;1.00;89.24;98819.97;5033636;28;20037;-78
2020/12/25 00:35:37;;;;;;;1.05;1.00;;;;;;;1.27;88.75;98850.72;5033266;28;20052;-79
2020/12/25 00:38:04;;;;;;;1.00;1.00;;;;;;;1.21;89.65;98833.34;5034796;28;20042;-78
2020/12/25 00:40:30;;;;;;;1.13;1.10;;;;;;;1.40;89.18;98854.00;5033288;28;20064;-79
2020/12/25 00:42:56;;;;;;;1.15;0.88;;;;;;;1.29;88.88;98850.56;5034025;28;20041;-79
2020/12/25 00:45:23;;;;;;;1.08;1.00;;;;;;;1.12;89.35;98841.34;5032983;28;20100;-78
2020/12/25 00:47:49;;;;;;;0.65;0.65;;;;;;;1.14;88.89;98848.22;5031270;28;20057;-78
2020/12/25 00:50:16;;;;;;;0.75;0.75;;;;;;;0.96;89.06;98833.75;5033701;28;20049;-78
2020/12/25 00:52:42;;;;;;;0.60;0.60;;;;;;;1.11;88.79;98869.06;5033262;28;20048;-78
2020/12/25 00:55:09;;;;;;;0.70;0.70;;;;;;;0.92;89.14;98841.22;5016532;28;20054;-79
2020/12/25 00:57:35;;;;;;;0.75;0.73;;;;;;;0.90;89.61;98837.81;5031368;28;20062;-78
2020/12/25 01:00:01;;;;;;;0.85;0.70;;;;;;;1.03;89.16;98875.09;5033700;28;20410;-78
2020/12/25 01:02:29;;;;;;;0.70;0.70;;;;;;;0.98;88.65;98854.06;5032450;28;20111;-78
2020/12/25 01:04:55;;;;;;;0.50;0.50;;;;;;;0.97;88.05;98863.06;5016330;28;20057;-78
2020/12/25 01:07:22;;;;;;;0.60;0.60;;;;;;;1.01;88.65;98887.75;5032358;28;20131;-79
2020/12/25 01:09:49;;;;;;;0.60;0.60;;;;;;;0.74;88.96;98859.69;5033222;28;20525;-79
2020/12/25 01:12:15;;;;;;;0.57;0.57;;;;;;;0.74;89.27;98865.03;5032068;28;20077;-79
2020/12/25 01:14:51;;;;;;;0.60;0.60;;;;;;;0.82;89.99;98873.25;5033301;28;20042;-79
2020/12/25 01:17:32;;;;;;;0.75;0.70;;;;;;;0.80;88.75;98885.06;5032633;28;20088;-79
2020/12/25 01:19:58;;;;;;;1.52;1.30;;;;;;;0.86;88.78;98882.72;5032435;28;20046;-79
2020/12/25 01:22:25;;;;;;;0.80;0.80;;;;;;;0.86;88.69;98885.41;5031322;28;20045;-79
2020/12/25 01:24:52;;;;;;;0.88;0.88;;;;;;;0.78;88.21;98897.72;5031811;28;20068;-78
2020/12/25 01:27:19;;;;;;;0.65;0.65;;;;;;;0.80;88.78;98899.31;5032601;28;20061;-78
2020/12/25 01:29:45;;;;;;;1.35;0.80;;;;;;;0.71;88.96;98905.44;5032700;28;20053;-78
2020/12/25 01:32:11;;;;;;;2.97;1.00;;;;;;;0.69;88.70;98924.31;5032101;28;20042;-79
2020/12/25 01:34:38;;;;;;;0.90;0.90;;;;;;;0.42;89.30;98892.66;5032613;28;20111;-79
2020/12/25 01:37:04;;;;;;;0.82;0.80;;;;;;;0.68;89.39;98916.41;5034392;28;20104;-79
2020/12/25 01:39:31;;;;;;;1.10;1.10;;;;;;;0.42;88.41;98898.03;5033375;28;20045;-79
2020/12/25 01:41:57;;;;;;;1.48;0.90;;;;;;;0.56;89.02;98930.78;5014441;28;20054;-79
2020/12/25 01:44:23;;;;;;;1.58;0.80;;;;;;;0.36;89.38;98898.50;5023945;28;20045;-79
2020/12/25 01:46:50;;;;;;;1.10;1.00;;;;;;;0.53;89.00;98914.00;5034769;28;20049;-79
2020/12/25 01:49:17;;;;;;;0.93;0.93;;;;;;;0.81;89.13;98942.97;5034316;28;20072;-79
2020/12/25 01:51:43;;;;;;;0.90;0.90;;;;;;;0.74;88.63;98945.31;5032721;28;20048;-79
2020/12/25 01:54:11;;;;;;;0.85;0.85;;;;;;;0.77;88.22;98947.75;5033983;28;20132;-79
2020/12/25 01:56:40;;;;;;;1.13;1.02;;;;;;;0.67;89.07;98944.97;5033300;28;20053;-79
2020/12/25 01:59:07;;;;;;;0.82;0.82;;;;;;;0.34;89.25;98914.66;5032663;28;20054;-79
2020/12/25 02:01:33;;;;;;;0.75;0.75;;;;;;;0.37;88.95;98934.13;5033285;28;20720;-79
2020/12/25 02:04:01;;;;;;;0.80;0.80;;;;;;;0.23;89.64;98917.38;5033943;28;20056;-79
2020/12/25 02:06:27;;;;;;;0.80;0.80;;;;;;;0.34;89.57;98930.72;5032176;28;20095;-79
2020/12/25 02:08:53;;;;;;;2.00;1.23;;;;;;;0.56;89.57;98947.69;5031739;28;20054;-79
2020/12/25 02:11:20;;;;;;;1.30;1.20;;;;;;;0.60;88.96;98949.13;5031746;28;20050;-79
2020/12/25 02:13:47;;;;;;;7.53;1.45;;;;;;;0.58;88.99;98950.25;5032073;28;20049;-79
2020/12/25 02:16:13;;;;;;;1.40;1.30;;;;;;;0.33;89.56;98928.16;5031254;28;20051;-79
2020/12/25 02:18:40;;;;;;;7.60;1.10;;;;;;;0.26;89.75;98935.00;5031968;28;20045;-80
2020/12/25 02:21:07;;;;;;;0.90;0.90;;;;;;;0.36;89.86;98965.34;5031366;28;20496;-79
2020/12/25 02:23:33;;;;;;;1.00;1.00;;;;;;;0.29;89.76;98951.66;5030893;28;20045;-79
2020/12/25 02:25:59;;;;;;;1.27;1.17;;;;;;;0.33;90.33;98954.91;5030297;28;20412;-79
2020/12/25 02:28:26;;;;;;;1.50;1.40;;;;;;;0.30;90.07;98955.16;5029360;28;20049;-79
2020/12/25 02:30:52;;;;;;;2.00;1.80;;;;;;;0.29;89.53;98950.81;5032153;28;20050;-79
2020/12/25 02:33:18;;;;;;;3.27;2.07;;;;;;;0.35;90.06;98966.34;5030798;28;20506;-79
2020/12/25 02:35:44;;;;;;;2.37;1.90;;;;;;;0.34;89.35;98978.84;5032927;28;20056;-79
2020/12/25 02:38:12;;;;;;;2.42;2.10;;;;;;;0.30;90.27;98966.72;5032782;28;20045;-79
2020/12/25 02:40:38;;;;;;;3.03;2.38;;;;;;;0.37;89.76;98942.16;5032614;28;20060;-79
2020/12/25 02:43:04;;;;;;;2.95;2.22;;;;;;;0.43;89.25;98963.88;5032532;28;20045;-79
2020/12/25 02:45:30;;;;;;;3.33;2.60;;;;;;;0.49;89.80;98957.19;5032342;28;20054;-78
2020/12/25 02:47:57;;;;;;;2.72;2.00;;;;;;;0.57;89.76;98969.94;5032375;28;20045;-78
2020/12/25 02:50:24;;;;;;;2.70;2.33;;;;;;;0.73;89.28;98988.25;5020955;28;20045;-77
2020/12/25 02:52:50;;;;;;;2.33;2.00;;;;;;;0.48;89.04;98959.03;5033588;28;20045;-78
2020/12/25 02:55:17;;;;;;;2.37;2.17;;;;;;;0.60;88.44;98983.06;5018370;28;20046;-78
2020/12/25 02:57:43;;;;;;;2.97;2.35;;;;;;;0.56;88.74;98984.28;5011868;28;20423;-77
2020/12/25 03:00:10;;;;;;;2.73;2.00;;;;;;;0.42;89.37;98983.59;5026361;28;20066;-77
2020/12/25 03:02:36;;;;;;;2.57;2.27;;;;;;;0.57;88.81;98994.00;5031379;28;20045;-77
2020/12/25 03:05:03;;;;;;;3.67;2.27;;;;;;;0.42;88.91;98972.91;5030228;28;20092;-77
2020/12/25 03:07:29;;;;;;;3.00;2.43;;;;;;;0.43;89.40;98968.41;5031415;28;20053;-77
2020/12/25 03:09:55;;;;;;;4.80;2.53;;;;;;;0.50;89.77;98991.00;5032458;28;20058;-78
2020/12/25 03:12:22;;;;;;;3.58;2.70;;;;;;;0.43;89.90;98987.13;5029219;28;20457;-78
2020/12/25 03:14:49;;;;;;;3.20;2.70;;;;;;;0.34;89.80;98962.81;5030772;28;20053;-78
2020/12/25 03:17:15;;;;;;;4.33;3.20;;;;;;;0.38;89.40;98976.78;5030668;28;20049;-78
2020/12/25 03:19:41;;;;;;;4.20;2.90;;;;;;;0.49;89.13;98995.47;5025607;28;20056;-78
2020/12/25 03:22:07;;;;;;;4.43;2.90;;;;;;;0.27;89.77;98975.00;5029829;28;20052;-78
2020/12/25 03:24:34;;;;;;;4.50;2.90;;;;;;;0.32;90.50;98971.94;5030134;28;20046;-78
2020/12/25 03:27:00;;;;;;;4.95;3.53;;;;;;;0.41;90.46;98983.72;5029262;28;20493;-78
2020/12/25 03:29:29;;;;;;;6.33;3.50;;;;;;;0.55;90.67;99002.16;5030423;28;20049;-78
2020/12/25 03:31:56;;;;;;;7.55;3.90;;;;;;;0.64;90.70;98997.88;5030506;28;20497;-78
2020/12/25 03:34:22;;;;;;;4.97;3.77;;;;;;;0.65;91.10;99013.81;5030505;28;20049;-78
2020/12/25 03:36:48;;;;;;;6.07;4.23;;;;;;;0.49;90.77;98978.59;5030946;28;20045;-78
2020/12/25 03:39:14;;;;;;;6.37;3.93;;;;;;;0.74;90.89;99014.03;5030887;28;20054;-79
2020/12/25 03:41:41;;;;;;;7.27;4.27;;;;;;;0.81;91.63;99008.06;5030687;28;20041;-79
2020/12/25 03:44:07;;;;;;;7.33;4.50;;;;;;;0.76;91.01;99004.06;5029971;28;20049;-79
2020/12/25 03:46:35;;;;;;;7.10;5.00;;;;;;;0.77;91.45;98997.72;5022122;28;20052;-79
2020/12/25 03:49:03;;;;;;;9.67;5.07;;;;;;;0.80;91.28;98990.31;5030340;28;20041;-79
2020/12/25 03:51:29;;;;;;;8.60;5.25;;;;;;;0.78;91.09;98968.16;5030629;28;20049;-79
2020/12/25 03:53:56;;;;;;;10.37;5.73;;;;;;;0.96;91.21;99007.75;5030817;28;20048;-79
2020/12/25 03:56:22;;;;;;;12.25;6.07;;;;;;;0.89;91.47;98999.41;5029875;28;20063;-79
2020/12/25 03:58:48;;;;;;;11.37;5.60;;;;;;;0.94;91.76;99010.56;5031245;28;20042;-79
2020/12/25 04:01:14;;;;;;;13.57;6.87;;;;;;;0.95;92.18;98976.59;5030328;28;20061;-79
2020/12/25 04:03:42;;;;;;;9.77;6.00;;;;;;;1.05;91.97;99012.34;5030997;28;20053;-79
2020/12/25 04:06:08;;;;;;;12.23;7.20;;;;;;;0.95;92.40;98979.28;5029726;28;20046;-79
2020/12/25 04:08:35;;;;;;;12.23;6.33;;;;;;;1.20;92.15;99010.22;5025397;28;20050;-79
2020/12/25 04:11:01;;;;;;;11.25;6.32;;;;;;;1.03;92.02;98988.38;5030762;28;20096;-79
2020/12/25 04:13:27;;;;;;;14.30;7.03;;;;;;;1.13;92.35;99009.88;5029242;28;20092;-78
2020/12/25 04:15:54;;;;;;;12.67;7.20;;;;;;;1.12;92.38;99010.03;5015814;28;20041;-79
2020/12/25 04:18:20;;;;;;;10.93;6.57;;;;;;;1.11;92.48;99008.31;5030044;28;20053;-79
2020/12/25 04:20:47;;;;;;;11.70;6.60;;;;;;;1.18;92.23;99021.06;5030365;28;20045;-78
2020/12/25 04:23:13;;;;;;;10.57;7.10;;;;;;;1.09;92.62;98978.16;5030781;28;20516;-78
2020/12/25 04:25:39;;;;;;;11.73;7.13;;;;;;;1.31;92.24;99028.03;5033668;28;20422;-78
2020/12/25 04:28:06;;;;;;;14.98;6.60;;;;;;;1.24;91.87;99025.06;5033646;28;20095;-79
2020/12/25 04:30:32;;;;;;;11.25;6.05;;;;;;;1.12;92.00;98999.31;5033264;28;20060;-79
2020/12/25 04:32:58;;;;;;;11.83;6.13;;;;;;;1.02;91.87;99002.75;5033543;28;20046;-79
2020/12/25 04:35:25;;;;;;;10.77;6.43;;;;;;;1.29;92.38;99051.44;5033638;28;20053;-79
2020/12/25 04:37:52;;;;;;;11.77;6.47;;;;;;;1.07;92.31;99021.13;5033773;28;20061;-79
2020/12/25 04:40:18;;;;;;;10.98;6.47;;;;;;;1.23;92.01;99037.59;5033521;28;20049;-79
2020/12/25 04:42:50;;;;;;;9.55;5.80;;;;;;;1.35;91.72;99048.25;5029007;28;20057;-79
2020/12/25 04:45:17;;;;;;;13.70;7.15;;;;;;;1.15;92.13;99023.16;5032821;28;20041;-79
2020/12/25 04:47:45;;;;;;;8.02;5.35;;;;;;;1.23;91.86;99053.66;5033802;28;20049;-79
2020/12/25 04:50:12;;;;;;;11.52;6.50;;;;;;;1.24;91.63;99059.88;5033296;28;20279;-79
2020/12/25 04:52:39;;;;;;;11.52;5.47;;;;;;;1.37;91.55;99059.66;5033616;28;20049;-79
2020/12/25 04:55:06;;;;;;;12.68;6.60;;;;;;;1.35;91.46;99056.28;5033227;28;20254;-79
2020/12/25 04:57:33;;;;;;;13.13;6.43;;;;;;;1.44;91.10;99071.56;5033124;28;20385;-79
2020/12/25 04:59:59;;;;;;;11.55;6.63;;;;;;;1.41;91.69;99064.63;5033176;28;20524;-79
2020/12/25 05:02:25;;;;;;;13.53;6.77;;;;;;;1.24;91.31;99038.44;5032826;28;20053;-79
2020/12/25 05:04:51;;;;;;;12.45;6.13;;;;;;;1.23;91.48;99050.13;5033076;28;20068;-78
2020/12/25 05:07:19;;;;;;;11.07;5.97;;;;;;;1.45;92.02;99070.59;5028445;28;20084;-79
2020/12/25 05:09:45;;;;;;;12.95;6.78;;;;;;;1.38;91.88;99062.22;5033374;28;20050;-79
2020/12/25 05:12:12;;;;;;;10.40;6.03;;;;;;;1.41;91.27;99071.84;5033241;28;20485;-79
2020/12/25 05:14:42;;;;;;;11.07;6.35;;;;;;;1.30;91.67;99055.84;5030096;28;20050;-79
2020/12/25 05:17:11;;;;;;;9.38;5.55;;;;;;;1.48;91.83;99080.22;5032804;28;20080;-79
2020/12/25 05:19:40;;;;;;;11.57;5.87;;;;;;;1.48;91.39;99077.53;5033462;28;20512;-79
2020/12/25 05:22:06;;;;;;;9.52;5.47;;;;;;;1.32;92.08;99070.78;5032745;28;20050;-79
2020/12/25 05:24:37;;;;;;;9.68;6.20;;;;;;;1.58;91.98;99086.47;5032969;28;20056;-79
2020/12/25 05:27:10;;;;;;;8.32;5.13;;;;;;;1.51;91.40;99088.00;5032721;28;20053;-79
2020/12/25 05:29:38;;;;;;;9.23;4.72;;;;;;;1.57;91.45;99079.44;5032827;28;20103;-79
2020/12/25 05:32:06;;;;;;;9.38;6.07;;;;;;;1.47;91.32;99062.44;5032362;28;20045;-78
2020/12/25 05:34:34;;;;;;;15.15;6.13;;;;;;;1.67;91.79;99095.59;5031058;28;20050;-79
2020/12/25 05:37:02;;;;;;;8.93;5.13;;;;;;;1.66;91.42;99100.09;5032615;28;20049;-79
2020/12/25 05:39:30;;;;;;;10.15;5.22;;;;;;;1.57;90.33;99082.97;5031476;28;20045;-79
2020/12/25 05:41:58;;;;;;;8.43;5.85;;;;;;;1.62;91.35;99101.34;5033023;28;20076;-79
2020/12/25 05:44:25;;;;;;;8.50;4.90;;;;;;;1.74;90.36;99108.31;5032140;28;20049;-79
2020/12/25 05:46:52;;;;;;;10.45;5.18;;;;;;;1.65;90.84;99114.47;5032017;28;20075;-79
2020/12/25 05:49:19;;;;;;;8.15;4.72;;;;;;;1.72;90.73;99125.53;5032603;28;20052;-79
2020/12/25 05:51:49;;;;;;;9.07;5.03;;;;;;;1.70;89.99;99114.06;5030577;28;20127;-79
2020/12/25 05:54:21;;;;;;;;;;;;;;;1.78;89.87;99111.63;5032713;28;20382;-79
2020/12/25 05:56:52;;;;;;;5.88;4.28;;;;;;;1.70;90.12;99123.00;5031849;28;19928;-79
2020/12/25 05:59:24;;;;;;;7.47;4.13;;;;;;;1.49;90.13;99101.53;5032535;28;20128;-79
2020/12/25 06:01:54;;;;;;;6.28;4.10;;;;;;;1.70;90.61;99123.00;5031815;28;20081;-79
2020/12/25 06:04:21;;;;;;;;;;;;;;;1.70;90.09;99123.00;5031799;28;20137;-79
2020/12/25 06:06:49;;;;;;;6.88;4.53;;;;;;;1.83;90.48;99130.00;5031876;28;19987;-79
2020/12/25 06:09:17;;;;;;;7.65;4.80;;;;;;;1.77;90.54;99121.47;5031573;28;20152;-79
2020/12/25 06:11:48;;;;;;;8.32;4.97;;;;;;;1.83;90.04;99135.34;5031829;28;20049;-79
2020/12/25 06:14:14;;;;;;;9.40;4.90;;;;;;;1.73;90.78;99122.72;5031331;28;20548;-79
2020/12/25 06:16:50;;;;;;;7.88;5.22;;;;;;;1.63;90.66;99115.59;5030806;28;20053;-79
2020/12/25 06:19:26;;;;;;;8.32;5.25;;;;;;;1.72;90.37;99137.09;5031854;28;20045;-79
2020/12/25 06:21:57;;;;;;;8.85;5.32;;;;;;;1.71;90.77;99146.13;5033583;28;20717;-79
2020/12/25 06:24:31;;;;;;;11.48;5.50;;;;;;;1.83;90.92;99143.38;5033533;28;20056;-79
2020/12/25 06:27:05;;;;;;;9.30;5.70;;;;;;;1.68;90.71;99124.94;5033971;28;20053;-79
2020/12/25 06:29:32;;;;;;;8.27;5.70;;;;;;;1.65;91.52;99135.91;5031474;28;20056;-79
2020/12/25 06:32:00;;;;;;;10.63;6.00;;;;;;;1.85;91.07;99157.50;5033364;28;20123;-79
2020/12/25 06:34:43;;;;;;;12.00;6.53;;;;;;;1.71;90.67;99156.84;5031979;28;20721;-79
2020/12/25 06:37:13;;;;;;;11.15;6.13;;;;;;;1.67;91.37;99147.38;5011859;28;20065;-79
2020/12/25 06:39:47;;;;;;;10.45;6.35;;;;;;;1.89;90.74;99165.16;5030020;28;20073;-79
2020/12/25 06:42:13;;;;;;;10.27;5.75;;;;;;;1.70;90.68;99144.44;5033340;28;20060;-79
2020/12/25 06:44:42;;;;;;;13.35;5.80;;;;;;;1.64;90.56;99138.72;5032998;28;20076;-79
2020/12/25 06:47:10;;;;;;;13.68;6.05;;;;;;;1.80;90.61;99175.81;5032082;28;20053;-79
2020/12/25 06:49:36;;;;;;;8.20;5.05;;;;;;;1.63;90.95;99153.97;5033726;28;20049;-79
2020/12/25 06:52:04;;;;;;;12.25;5.90;;;;;;;1.64;90.79;99161.03;5033229;28;20060;-79
2020/12/25 06:54:39;;;;;;;10.10;6.50;;;;;;;1.88;91.20;99176.88;5033487;28;20068;-79
2020/12/25 06:57:09;;;;;;;10.75;6.50;;;;;;;1.78;91.40;99159.88;5033323;28;20076;-79
2020/12/25 06:59:35;;;;;;;;;;;;;;;1.89;90.65;99181.25;5033973;28;20046;-78
2020/12/25 07:02:04;;;;;;;11.15;6.05;;;;;;;1.81;90.99;99174.81;5033419;28;19921;-79
2020/12/25 07:04:31;;;;;;;12.70;5.88;;;;;;;1.75;90.36;99169.00;5033141;28;20128;-78
2020/12/25 07:07:00;;;;;;;10.10;5.43;;;;;;;1.69;90.78;99176.72;5033153;28;20053;-78
2020/12/25 07:09:39;;;;;;;8.95;5.38;;;;;;;1.66;90.78;99166.25;5033248;28;20050;-78
2020/12/25 07:12:07;;;;;;;8.10;5.55;;;;;;;1.75;90.79;99200.34;5033077;28;20061;-78
2020/12/25 07:14:34;;;;;;;8.82;5.30;;;;;;;1.57;91.35;99170.56;5032818;28;20490;-79
2020/12/25 07:17:00;;;;;;;9.35;5.25;;;;;;;1.70;91.33;99179.28;5033093;28;20493;-79
2020/12/25 07:19:26;;;;;;;9.80;5.85;;;;;;;1.87;90.60;99215.38;5032941;28;20045;-79
2020/12/25 07:21:53;;;;;;;8.60;5.22;;;;;;;1.71;90.09;99185.47;5033197;28;20084;-78
2020/12/25 07:24:19;;;;;;;8.43;5.10;;;;;;;1.74;90.38;99214.69;5032669;28;20084;-79
2020/12/25 07:26:48;;;;;;;6.82;4.22;;;;;;;1.69;90.44;99217.75;5032405;28;20060;-79
2020/12/25 07:29:14;;;;;;;8.68;4.88;;;;;;;1.73;90.49;99226.38;5031483;28;20054;-78
2020/12/25 07:31:46;;;;;;;8.93;4.93;;;;;;;1.65;90.81;99207.44;5029618;28;20042;-78
2020/12/25 07:34:17;;;;;;;10.77;5.45;;;;;;;1.81;90.29;99231.13;5030757;28;20049;-78
2020/12/25 07:36:43;;;;;;;10.13;5.55;;;;;;;1.69;89.91;99212.41;5030528;28;20076;-78
2020/12/25 07:39:10;;;;;;;9.48;5.88;;;;;;;1.75;89.59;99214.56;5031145;28;20399;-78
2020/12/25 07:41:36;;;;;;;11.32;5.72;;;;;;;1.62;89.92;99203.16;5030267;28;20049;-79
2020/12/25 07:44:06;;;;;;;9.55;5.57;;;;;;;1.84;90.62;99252.34;5031890;28;20103;-79
2020/12/25 07:46:33;;;;;;;8.07;4.50;;;;;;;1.71;89.24;99229.19;5031915;28;20061;-79
2020/12/25 07:49:00;;;;;;;8.93;5.70;;;;;;;1.63;89.95;99212.06;5032624;28;20099;-79
2020/12/25 07:51:26;;;;;;;7.72;4.30;;;;;;;1.65;89.50;99247.63;5031798;28;20678;-79
2020/12/25 07:53:55;;;;;;;9.65;3.97;;;;;;;1.64;90.17;99260.19;5033125;28;20045;-79
2020/12/25 07:56:23;;;;;;;12.68;5.13;;;;;;;1.59;90.14;99243.63;5027532;28;20509;-79
2020/12/25 07:58:51;;;;;;;9.80;5.50;;;;;;;1.56;89.94;99225.94;5022377;28;20058;-78
2020/12/25 08:01:20;;;;;;;13.25;6.07;;;;;;;1.69;89.00;99254.44;5033970;28;20049;-79
2020/12/25 08:03:46;;;;;;;15.00;5.78;;;;;;;1.68;89.54;99248.22;5033606;28;20056;-78
2020/12/25 08:06:20;;;;;;;10.82;5.10;;;;;;;1.72;88.83;99260.41;5025075;28;20049;-78
2020/12/25 08:08:49;;;;;;;8.75;5.28;;;;;;;1.75;89.38;99270.88;5031859;28;20052;-79
2020/12/25 08:11:18;;;;;;;11.93;5.45;;;;;;;1.61;90.16;99244.34;5034065;28;20353;-78
2020/12/25 08:13:47;;;;;;;10.30;5.93;;;;;;;1.72;90.35;99262.22;5033641;28;20049;-79
2020/12/25 08:16:13;;;;;;;12.25;5.80;;;;;;;1.68;89.86;99258.94;5028267;28;20038;-79
2020/12/25 08:18:41;;;;;;;10.20;5.90;;;;;;;1.69;89.60;99247.25;5027877;28;20060;-79
2020/12/25 08:21:07;;;;;;;11.38;5.78;;;;;;;1.74;90.05;99249.53;5031286;28;20048;-79
2020/12/25 08:23:34;;;;;;;10.70;6.43;;;;;;;1.87;89.67;99262.81;5032896;28;20041;-79
2020/12/25 08:26:01;;;;;;;9.93;5.63;;;;;;;1.93;89.77;99267.66;5033507;28;20049;-79
2020/12/25 08:28:30;;;;;;;11.50;6.10;;;;;;;1.92;89.51;99252.53;5029086;28;20041;-79
2020/12/25 08:30:58;;;;;;;17.35;6.82;;;;;;;2.03;89.39;99281.13;5029640;28;20382;-79
2020/12/25 08:33:25;;;;;;;18.30;8.15;;;;;;;1.85;89.61;99254.88;5035016;28;20037;-80
2020/12/25 08:35:53;;;;;;;13.65;6.80;;;;;;;1.88;89.40;99259.13;5034677;28;20053;-78
2020/12/25 08:38:20;;;;;;;20.27;8.32;;;;;;;1.92;89.65;99274.81;5033418;28;20049;-77
2020/12/25 08:40:48;;;;;;;16.73;7.10;;;;;;;2.03;89.64;99292.72;5035110;28;20045;-77
2020/12/25 08:43:15;;;;;;;15.50;7.28;;;;;;;2.07;89.67;99294.16;5034975;28;20111;-77
2020/12/25 08:45:54;;;;;;;15.20;6.90;;;;;;;2.08;90.39;99285.16;5027565;28;20079;-77
2020/12/25 08:48:21;;;;;;;11.48;6.18;;;;;;;1.86;89.09;99269.97;5031114;28;20108;-78
2020/12/25 08:50:47;;;;;;;13.15;5.57;;;;;;;1.96;89.28;99291.53;5034946;28;20048;-77
2020/12/25 08:53:17;;;;;;;12.95;6.05;;;;;;;2.04;88.97;99280.16;5035329;28;20053;-77
2020/12/25 08:55:55;;;;;;;9.43;5.38;;;;;;;2.31;88.74;99311.88;5035368;28;20678;-77
2020/12/25 08:58:22;;;;;;;10.07;5.80;;;;;;;2.20;88.80;99310.09;5034782;28;20049;-77
2020/12/25 09:01:10;;;;;;;7.65;4.20;;;;;;;1.94;87.94;99293.47;5033235;28;20477;-77
2020/12/25 09:03:47;;;;;;;10.88;5.22;;;;;;;2.14;88.56;99324.03;5027466;28;20453;-77
2020/12/25 09:06:14;;;;;;;15.70;7.53;;;;;;;2.02;89.10;99299.06;5035493;28;20119;-77
2020/12/25 09:08:41;;;;;;;11.30;6.32;;;;;;;2.03;88.49;99298.09;5034497;28;20449;-77
2020/12/25 09:11:08;;;;;;;11.57;6.38;;;;;;;2.33;88.55;99330.53;5035018;28;20088;-77
2020/12/25 09:13:35;;;;;;;12.88;5.63;;;;;;;2.12;88.76;99315.22;5030010;28;20042;-77
2020/12/25 09:16:01;;;;;;;7.35;4.80;;;;;;;2.12;87.61;99310.75;5029592;28;20049;-77
2020/12/25 09:18:27;;;;;;;9.90;5.55;;;;;;;2.12;88.54;99328.63;5029849;28;20057;-77
2020/12/25 09:20:53;;;;;;;7.53;5.00;;;;;;;2.03;88.33;99332.09;5031808;28;20050;-77
2020/12/25 09:23:19;;;;;;;7.55;4.75;;;;;;;2.03;88.73;99324.03;5031836;28;20107;-77
2020/12/25 09:25:47;;;;;;;16.25;4.95;;;;;;;2.24;88.23;99361.66;5032839;28;20068;-77
2020/12/25 09:28:13;;;;;;;7.13;4.65;;;;;;;2.14;88.00;99340.13;5033031;28;20053;-77
2020/12/25 09:30:39;;;;;;;9.75;5.00;;;;;;;2.22;88.39;99359.09;5033235;28;20050;-77
2020/12/25 09:33:06;;;;;;;9.23;4.28;;;;;;;2.01;87.85;99348.31;5032407;28;20501;-77
2020/12/25 09:35:32;;;;;;;12.75;5.78;;;;;;;2.12;88.05;99366.19;5032203;28;20045;-78
2020/12/25 09:37:58;;;;;;;11.75;5.75;;;;;;;2.16;87.74;99361.44;5023948;28;20414;-77
2020/12/25 09:40:24;;;;;;;8.90;5.10;;;;;;;2.19;87.87;99358.50;5026265;28;20046;-77
2020/12/25 09:42:52;;;;;;;8.93;5.15;;;;;;;2.18;87.22;99365.69;5033056;28;20417;-77
2020/12/25 09:45:18;;;;;;;10.35;4.88;;;;;;;2.00;87.30;99351.09;5031877;28;20136;-77
2020/12/25 09:47:45;;;;;;;8.07;4.57;;;;;;;2.06;88.78;99367.56;5025708;28;20057;-77
2020/12/25 09:50:11;;;;;;;11.68;5.53;;;;;;;2.06;88.15;99356.84;5032261;28;20091;-77
2020/12/25 09:52:37;;;;;;;8.85;4.90;;;;;;;1.98;88.05;99359.28;5031357;28;20037;-77
2020/12/25 09:55:04;;;;;;;8.57;4.70;;;;;;;2.10;88.15;99369.00;5026281;28;20055;-77
2020/12/25 09:57:31;;;;;;;9.57;5.13;;;;;;;1.95;87.36;99335.41;5032593;28;20046;-79
2020/12/25 09:59:58;;;;;;;8.98;4.78;;;;;;;2.14;87.11;99361.56;5033009;28;20116;-79
2020/12/25 10:02:25;;;;;;;8.25;4.38;;;;;;;2.23;87.97;99382.25;5025021;28;20056;-78
2020/12/25 10:04:51;;;;;;;8.65;5.00;;;;;;;2.08;87.72;99351.34;5030296;28;20045;-78
2020/12/25 10:07:17;;;;;;;8.73;5.05;;;;;;;2.32;87.02;99374.41;5029042;28;20042;-78
2020/12/25 10:09:44;;;;;;;13.10;5.47;;;;;;;2.23;87.63;99352.75;5026771;28;20417;-79
2020/12/25 10:12:10;;;;;;;11.65;5.95;;;;;;;2.46;87.11;99366.09;5033664;28;20060;-79
2020/12/25 10:14:42;;;;;;;10.00;4.78;;;;;;;2.48;87.09;99375.72;5013556;28;20123;-78
2020/12/25 10:17:09;;;;;;;8.48;4.40;;;;;;;2.43;86.96;99385.97;5013755;28;20410;-78
2020/12/25 10:19:36;;;;;;;8.05;4.57;;;;;;;2.39;86.31;99381.84;5030786;28;20048;-79
2020/12/25 10:22:04;;;;;;;10.63;5.45;;;;;;;2.37;88.02;99373.06;5031950;28;20103;-78
2020/12/25 10:24:30;;;;;;;11.95;5.93;;;;;;;2.28;87.31;99357.75;5013895;28;20057;-79
2020/12/25 10:26:56;;;;;;;9.70;5.85;;;;;;;2.40;87.48;99369.28;5017312;28;20103;-78
2020/12/25 10:29:23;;;;;;;10.25;5.93;;;;;;;2.42;87.54;99364.63;5032225;28;20053;-79
2020/12/25 10:31:50;;;;;;;11.93;6.82;;;;;;;2.52;87.01;99370.94;5022112;28;20136;-79
2020/12/25 10:34:17;;;;;;;13.02;4.82;;;;;;;2.29;86.78;99343.34;5030135;28;20049;-78
2020/12/25 10:36:44;;;;;;;8.60;5.25;;;;;;;2.40;87.13;99363.91;5029862;28;20049;-78
2020/12/25 10:39:11;;;;;;;8.43;4.85;;;;;;;2.35;87.22;99355.38;5033413;28;20545;-78
2020/12/25 10:41:37;;;;;;;7.88;5.00;;;;;;;2.33;85.77;99343.94;5031911;28;20057;-78
2020/12/25 10:44:04;;;;;;;7.32;4.40;;;;;;;2.22;87.17;99339.47;5032676;28;20064;-78
2020/12/25 10:46:30;;;;;;;9.68;4.85;;;;;;;2.35;86.41;99358.94;5032904;28;20060;-78
2020/12/25 10:48:57;;;;;;;9.15;3.95;;;;;;;2.27;86.80;99350.66;5037097;28;20056;-80
2020/12/25 10:51:24;;;;;;;10.73;6.15;;;;;;;2.26;86.88;99365.06;5020423;28;20472;-79
2020/12/25 10:53:51;;;;;;;6.90;3.72;;;;;;;2.09;86.37;99372.69;5035676;28;20045;-79
2020/12/25 10:56:21;;;;;;;13.57;5.78;;;;;;;2.14;85.91;99388.41;5032481;28;20064;-79
2020/12/25 10:58:47;;;;;;;11.23;7.18;;;;;;;2.07;85.93;99385.34;5029431;28;20050;-79
2020/12/25 11:01:20;;;;;;;12.52;5.13;;;;;;;1.79;86.83;99351.03;5021202;28;20060;-77
2020/12/25 11:03:47;;;;;;;10.50;5.55;;;;;;;1.96;86.97;99393.44;5025353;28;20575;-78
2020/12/25 11:06:13;;;;;;;7.60;4.32;;;;;;;1.68;87.64;99367.97;5029520;28;20049;-78
2020/12/25 11:08:40;;;;;;;14.32;7.45;;;;;;;1.88;88.98;99379.78;5030409;28;20053;-78
2020/12/25 11:11:07;;;;;;;20.05;9.85;;;;;;;1.93;87.73;99380.28;5030110;28;20078;-77
2020/12/25 11:13:33;;;;;;;21.48;10.07;;;;;;;1.90;88.30;99364.44;5030702;28;20509;-78
2020/12/25 11:16:00;;;;;;;17.50;10.00;;;;;;;1.82;87.24;99372.22;5030421;28;20057;-78
2020/12/25 11:18:26;;;;;;;8.75;4.78;;;;;;;2.02;86.96;99395.59;5022043;28;20053;-78
2020/12/25 11:20:52;;;;;;;9.55;6.22;;;;;;;1.99;87.23;99374.41;5021434;28;20049;-77
2020/12/25 11:23:18;;;;;;;8.18;5.47;;;;;;;2.04;87.67;99384.75;5015927;28;20056;-78
2020/12/25 11:25:46;;;;;;;9.65;4.88;;;;;;;1.95;87.58;99368.41;5030425;28;20061;-78
2020/12/25 11:28:12;;;;;;;11.77;5.80;;;;;;;2.26;86.74;99395.44;5030695;28;20049;-78
2020/12/25 11:30:38;;;;;;;8.43;4.72;;;;;;;2.00;87.43;99372.56;5029643;28;20053;-78
2020/12/25 11:33:04;;;;;;;8.63;4.68;;;;;;;2.19;86.07;99391.53;5033258;28;20501;-78
2020/12/25 11:35:31;;;;;;;6.95;4.43;;;;;;;2.00;86.22;99392.19;5034438;28;20449;-78
2020/12/25 11:37:57;;;;;;;6.47;4.03;;;;;;;2.02;83.87;99409.00;5033898;28;20510;-78
2020/12/25 11:40:23;;;;;;;6.93;3.83;;;;;;;1.85;84.18;99396.09;5035173;28;20057;-78